sensor_id;sensor_type;location;lat;lon;timestamp;temperature;humidity
59975;DHT22;62136;-35.664;-63.766;2023-06-04T00:00:03;20.80;52.40
59975;DHT22;62136;-35.664;-63.766;2023-06-04T00:02:30;20.70;52.40
59975;DHT22;62136;-35.664;-63.766;2023-06-04T00:04:57;20.70;52.30
59975;DHT22;62136;-35.664;-63.766;2023-06-04T00:07:25;20.80;52.50
59975;DHT22;62136;-35.664;-63.766;2023-06-04T00:09:53;20.80;52.50
59975;DHT22;62136;-35.664;-63.766;2023-06-04T00:12:20;20.70;52.50
59975;DHT22;62136;-35.664;-63.766;2023-06-04T00:14:47;20.70;52.50
59975;DHT22;62136;-35.664;-63.766;2023-06-04T00:17:14;20.70;52.60
59975;DHT22;62136;-35.664;-63.766;2023-06-04T00:19:42;20.70;52.60
59975;DHT22;62136;-35.664;-63.766;2023-06-04T00:22:09;20.70;52.60
59975;DHT22;62136;-35.664;-63.766;2023-06-04T00:24:37;20.70;52.60
59975;DHT22;62136;-35.664;-63.766;2023-06-04T00:27:08;20.70;52.30
59975;DHT22;62136;-35.664;-63.766;2023-06-04T00:29:35;20.70;53.20
59975;DHT22;62136;-35.664;-63.766;2023-06-04T00:32:03;20.70;52.70
59975;DHT22;62136;-35.664;-63.766;2023-06-04T00:34:30;20.70;52.70
59975;DHT22;62136;-35.664;-63.766;2023-06-04T00:36:57;20.60;52.60
59975;DHT22;62136;-35.664;-63.766;2023-06-04T00:39:24;20.60;52.70
59975;DHT22;62136;-35.664;-63.766;2023-06-04T00:41:51;20.60;52.70
59975;DHT22;62136;-35.664;-63.766;2023-06-04T00:44:18;20.60;52.70
59975;DHT22;62136;-35.664;-63.766;2023-06-04T00:46:48;20.60;52.80
59975;DHT22;62136;-35.664;-63.766;2023-06-04T00:49:15;20.60;52.80
59975;DHT22;62136;-35.664;-63.766;2023-06-04T00:51:42;20.60;52.80
59975;DHT22;62136;-35.664;-63.766;2023-06-04T00:54:10;20.60;52.80
59975;DHT22;62136;-35.664;-63.766;2023-06-04T00:56:39;20.60;52.80
59975;DHT22;62136;-35.664;-63.766;2023-06-04T00:59:08;20.60;52.90
59975;DHT22;62136;-35.664;-63.766;2023-06-04T01:04:12;20.50;53.00
59975;DHT22;62136;-35.664;-63.766;2023-06-04T01:06:45;20.60;53.10
59975;DHT22;62136;-35.664;-63.766;2023-06-04T01:09:14;20.50;53.10
59975;DHT22;62136;-35.664;-63.766;2023-06-04T01:11:42;20.50;53.00
59975;DHT22;62136;-35.664;-63.766;2023-06-04T01:14:10;20.50;53.00
59975;DHT22;62136;-35.664;-63.766;2023-06-04T01:25:04;20.50;53.20
59975;DHT22;62136;-35.664;-63.766;2023-06-04T01:27:31;20.50;53.20
59975;DHT22;62136;-35.664;-63.766;2023-06-04T01:30:01;20.50;53.20
59975;DHT22;62136;-35.664;-63.766;2023-06-04T01:32:30;20.50;53.30
59975;DHT22;62136;-35.664;-63.766;2023-06-04T01:34:58;20.40;53.30
59975;DHT22;62136;-35.664;-63.766;2023-06-04T01:37:25;20.50;53.30
59975;DHT22;62136;-35.664;-63.766;2023-06-04T01:39:53;20.40;53.30
59975;DHT22;62136;-35.664;-63.766;2023-06-04T01:42:20;20.40;53.80
59975;DHT22;62136;-35.664;-63.766;2023-06-04T01:44:47;20.40;53.40
59975;DHT22;62136;-35.664;-63.766;2023-06-04T01:50:29;20.40;53.40
59975;DHT22;62136;-35.664;-63.766;2023-06-04T01:52:57;20.40;53.50
59975;DHT22;62136;-35.664;-63.766;2023-06-04T01:55:24;20.40;53.60
59975;DHT22;62136;-35.664;-63.766;2023-06-04T01:57:52;20.40;53.60
59975;DHT22;62136;-35.664;-63.766;2023-06-04T02:00:19;20.40;53.60
59975;DHT22;62136;-35.664;-63.766;2023-06-04T02:02:47;20.40;53.70
59975;DHT22;62136;-35.664;-63.766;2023-06-04T02:05:17;20.30;53.60
59975;DHT22;62136;-35.664;-63.766;2023-06-04T02:08:03;20.30;53.70
59975;DHT22;62136;-35.664;-63.766;2023-06-04T02:10:31;20.30;53.80
59975;DHT22;62136;-35.664;-63.766;2023-06-04T02:13:00;20.30;53.80
59975;DHT22;62136;-35.664;-63.766;2023-06-04T02:15:30;20.30;53.90
59975;DHT22;62136;-35.664;-63.766;2023-06-04T02:18:10;20.30;53.80
59975;DHT22;62136;-35.664;-63.766;2023-06-04T02:20:43;20.30;53.80
59975;DHT22;62136;-35.664;-63.766;2023-06-04T02:23:11;20.30;53.90
59975;DHT22;62136;-35.664;-63.766;2023-06-04T02:25:39;20.20;53.80
59975;DHT22;62136;-35.664;-63.766;2023-06-04T02:28:06;20.20;53.90
59975;DHT22;62136;-35.664;-63.766;2023-06-04T02:30:34;20.20;53.90
59975;DHT22;62136;-35.664;-63.766;2023-06-04T02:33:01;20.20;54.00
59975;DHT22;62136;-35.664;-63.766;2023-06-04T02:35:29;20.20;54.00
59975;DHT22;62136;-35.664;-63.766;2023-06-04T02:37:57;20.20;54.00
59975;DHT22;62136;-35.664;-63.766;2023-06-04T02:40:27;20.20;54.00
59975;DHT22;62136;-35.664;-63.766;2023-06-04T02:42:55;20.20;54.10
59975;DHT22;62136;-35.664;-63.766;2023-06-04T02:45:24;20.10;54.00
59975;DHT22;62136;-35.664;-63.766;2023-06-04T02:47:52;20.20;54.20
59975;DHT22;62136;-35.664;-63.766;2023-06-04T02:50:19;20.10;54.10
59975;DHT22;62136;-35.664;-63.766;2023-06-04T02:52:46;20.10;54.00
59975;DHT22;62136;-35.664;-63.766;2023-06-04T03:02:09;20.10;54.20
59975;DHT22;62136;-35.664;-63.766;2023-06-04T03:04:37;20.10;54.40
59975;DHT22;62136;-35.664;-63.766;2023-06-04T03:07:04;20.10;54.30
59975;DHT22;62136;-35.664;-63.766;2023-06-04T03:09:31;20.00;54.20
59975;DHT22;62136;-35.664;-63.766;2023-06-04T03:12:03;20.00;54.00
59975;DHT22;62136;-35.664;-63.766;2023-06-04T03:14:31;20.00;54.40
59975;DHT22;62136;-35.664;-63.766;2023-06-04T03:17:00;20.00;54.40
59975;DHT22;62136;-35.664;-63.766;2023-06-04T03:19:45;20.00;54.40
59975;DHT22;62136;-35.664;-63.766;2023-06-04T03:22:12;20.00;54.30
59975;DHT22;62136;-35.664;-63.766;2023-06-04T03:24:40;20.00;54.40
59975;DHT22;62136;-35.664;-63.766;2023-06-04T03:27:08;20.00;54.40
59975;DHT22;62136;-35.664;-63.766;2023-06-04T03:29:37;20.00;54.50
59975;DHT22;62136;-35.664;-63.766;2023-06-04T03:32:04;20.00;54.40
59975;DHT22;62136;-35.664;-63.766;2023-06-04T03:34:32;20.00;54.40
59975;DHT22;62136;-35.664;-63.766;2023-06-04T03:36:59;20.00;54.50
59975;DHT22;62136;-35.664;-63.766;2023-06-04T03:39:26;19.90;54.40
59975;DHT22;62136;-35.664;-63.766;2023-06-04T03:41:54;19.90;54.60
59975;DHT22;62136;-35.664;-63.766;2023-06-04T03:44:21;19.90;54.10
59975;DHT22;62136;-35.664;-63.766;2023-06-04T03:46:49;19.90;53.80
59975;DHT22;62136;-35.664;-63.766;2023-06-04T03:49:19;19.90;54.60
59975;DHT22;62136;-35.664;-63.766;2023-06-04T03:51:48;19.90;54.30
59975;DHT22;62136;-35.664;-63.766;2023-06-04T03:54:15;19.90;54.10
59975;DHT22;62136;-35.664;-63.766;2023-06-04T03:56:48;19.90;54.60
59975;DHT22;62136;-35.664;-63.766;2023-06-04T03:59:15;19.90;54.60
59975;DHT22;62136;-35.664;-63.766;2023-06-04T04:01:43;19.80;54.70
59975;DHT22;62136;-35.664;-63.766;2023-06-04T04:04:10;19.80;54.70
59975;DHT22;62136;-35.664;-63.766;2023-06-04T04:06:37;19.80;54.70
59975;DHT22;62136;-35.664;-63.766;2023-06-04T04:09:04;19.80;54.40
59975;DHT22;62136;-35.664;-63.766;2023-06-04T04:11:33;19.80;54.60
59975;DHT22;62136;-35.664;-63.766;2023-06-04T04:14:00;19.80;54.60
59975;DHT22;62136;-35.664;-63.766;2023-06-04T04:16:27;19.80;54.70
59975;DHT22;62136;-35.664;-63.766;2023-06-04T04:18:54;19.80;54.70
59975;DHT22;62136;-35.664;-63.766;2023-06-04T04:21:22;19.80;54.80
59975;DHT22;62136;-35.664;-63.766;2023-06-04T04:23:49;19.80;54.60
59975;DHT22;62136;-35.664;-63.766;2023-06-04T04:26:19;19.80;54.80
59975;DHT22;62136;-35.664;-63.766;2023-06-04T04:28:46;19.70;54.70
59975;DHT22;62136;-35.664;-63.766;2023-06-04T04:31:14;19.70;54.70
59975;DHT22;62136;-35.664;-63.766;2023-06-04T04:33:41;19.70;54.80
59975;DHT22;62136;-35.664;-63.766;2023-06-04T04:36:08;19.70;55.00
59975;DHT22;62136;-35.664;-63.766;2023-06-04T04:38:41;19.70;54.60
59975;DHT22;62136;-35.664;-63.766;2023-06-04T04:41:12;19.70;55.00
59975;DHT22;62136;-35.664;-63.766;2023-06-04T04:43:39;19.70;55.00
59975;DHT22;62136;-35.664;-63.766;2023-06-04T04:46:07;19.70;55.00
59975;DHT22;62136;-35.664;-63.766;2023-06-04T04:48:34;19.70;55.00
59975;DHT22;62136;-35.664;-63.766;2023-06-04T04:51:02;19.70;55.10
59975;DHT22;62136;-35.664;-63.766;2023-06-04T04:53:29;19.70;55.00
59975;DHT22;62136;-35.664;-63.766;2023-06-04T04:55:57;19.70;54.90
59975;DHT22;62136;-35.664;-63.766;2023-06-04T04:58:24;19.70;55.10
59975;DHT22;62136;-35.664;-63.766;2023-06-04T05:00:51;19.60;55.00
59975;DHT22;62136;-35.664;-63.766;2023-06-04T05:03:18;19.60;54.70
59975;DHT22;62136;-35.664;-63.766;2023-06-04T05:05:46;19.60;55.00
59975;DHT22;62136;-35.664;-63.766;2023-06-04T05:08:13;19.60;55.20
59975;DHT22;62136;-35.664;-63.766;2023-06-04T05:10:40;19.60;55.10
59975;DHT22;62136;-35.664;-63.766;2023-06-04T05:13:07;19.60;55.10
59975;DHT22;62136;-35.664;-63.766;2023-06-04T05:15:35;19.60;55.30
59975;DHT22;62136;-35.664;-63.766;2023-06-04T05:18:02;19.60;55.30
59975;DHT22;62136;-35.664;-63.766;2023-06-04T05:20:30;19.50;55.30
59975;DHT22;62136;-35.664;-63.766;2023-06-04T05:22:57;19.50;55.30
59975;DHT22;62136;-35.664;-63.766;2023-06-04T05:25:24;19.50;55.40
59975;DHT22;62136;-35.664;-63.766;2023-06-04T05:27:53;19.50;55.50
59975;DHT22;62136;-35.664;-63.766;2023-06-04T05:30:20;19.50;55.50
59975;DHT22;62136;-35.664;-63.766;2023-06-04T05:32:48;19.50;55.40
59975;DHT22;62136;-35.664;-63.766;2023-06-04T05:35:16;19.50;55.60
59975;DHT22;62136;-35.664;-63.766;2023-06-04T05:37:44;19.50;55.50
59975;DHT22;62136;-35.664;-63.766;2023-06-04T05:40:12;19.50;55.60
59975;DHT22;62136;-35.664;-63.766;2023-06-04T05:42:40;19.50;55.70
59975;DHT22;62136;-35.664;-63.766;2023-06-04T05:45:08;19.50;55.70
59975;DHT22;62136;-35.664;-63.766;2023-06-04T05:47:36;19.40;55.70
59975;DHT22;62136;-35.664;-63.766;2023-06-04T05:50:03;19.50;55.50
59975;DHT22;62136;-35.664;-63.766;2023-06-04T05:52:32;19.40;55.70
59975;DHT22;62136;-35.664;-63.766;2023-06-04T05:55:00;19.40;55.80
59975;DHT22;62136;-35.664;-63.766;2023-06-04T05:57:27;19.40;55.80
59975;DHT22;62136;-35.664;-63.766;2023-06-04T05:59:54;19.40;55.90
59975;DHT22;62136;-35.664;-63.766;2023-06-04T06:02:21;19.40;56.00
59975;DHT22;62136;-35.664;-63.766;2023-06-04T06:04:48;19.40;55.90
59975;DHT22;62136;-35.664;-63.766;2023-06-04T06:07:15;19.40;55.90
59975;DHT22;62136;-35.664;-63.766;2023-06-04T06:09:42;19.30;55.60
59975;DHT22;62136;-35.664;-63.766;2023-06-04T06:12:15;19.30;56.00
59975;DHT22;62136;-35.664;-63.766;2023-06-04T06:14:45;19.30;56.00
59975;DHT22;62136;-35.664;-63.766;2023-06-04T06:17:12;19.30;55.90
59975;DHT22;62136;-35.664;-63.766;2023-06-04T06:19:39;19.30;55.90
59975;DHT22;62136;-35.664;-63.766;2023-06-04T06:22:06;19.30;56.10
59975;DHT22;62136;-35.664;-63.766;2023-06-04T06:24:36;19.30;56.10
59975;DHT22;62136;-35.664;-63.766;2023-06-04T06:27:04;19.30;56.10
59975;DHT22;62136;-35.664;-63.766;2023-06-04T06:29:31;19.20;56.20
59975;DHT22;62136;-35.664;-63.766;2023-06-04T06:31:58;19.20;56.20
59975;DHT22;62136;-35.664;-63.766;2023-06-04T06:34:25;19.20;56.10
59975;DHT22;62136;-35.664;-63.766;2023-06-04T06:36:52;19.20;56.20
59975;DHT22;62136;-35.664;-63.766;2023-06-04T06:39:19;19.20;56.20
59975;DHT22;62136;-35.664;-63.766;2023-06-04T06:41:47;19.20;56.30
59975;DHT22;62136;-35.664;-63.766;2023-06-04T06:44:14;19.20;56.30
59975;DHT22;62136;-35.664;-63.766;2023-06-04T06:46:41;19.20;56.10
59975;DHT22;62136;-35.664;-63.766;2023-06-04T06:49:08;19.20;56.30
59975;DHT22;62136;-35.664;-63.766;2023-06-04T06:51:35;19.20;56.30
59975;DHT22;62136;-35.664;-63.766;2023-06-04T06:54:03;19.20;56.40
59975;DHT22;62136;-35.664;-63.766;2023-06-04T06:56:30;19.20;56.40
59975;DHT22;62136;-35.664;-63.766;2023-06-04T06:58:57;19.20;56.40
59975;DHT22;62136;-35.664;-63.766;2023-06-04T07:01:24;19.10;56.40
59975;DHT22;62136;-35.664;-63.766;2023-06-04T07:03:51;19.10;56.40
59975;DHT22;62136;-35.664;-63.766;2023-06-04T07:06:18;19.10;56.40
59975;DHT22;62136;-35.664;-63.766;2023-06-04T07:08:45;19.10;56.50
59975;DHT22;62136;-35.664;-63.766;2023-06-04T07:11:14;19.10;56.50
59975;DHT22;62136;-35.664;-63.766;2023-06-04T07:13:43;19.10;56.50
59975;DHT22;62136;-35.664;-63.766;2023-06-04T07:16:10;19.10;56.50
59975;DHT22;62136;-35.664;-63.766;2023-06-04T07:18:37;19.10;56.50
59975;DHT22;62136;-35.664;-63.766;2023-06-04T07:21:04;19.00;56.50
59975;DHT22;62136;-35.664;-63.766;2023-06-04T07:23:31;19.10;56.60
59975;DHT22;62136;-35.664;-63.766;2023-06-04T07:25:58;19.00;56.70
59975;DHT22;62136;-35.664;-63.766;2023-06-04T07:28:25;19.00;56.40
59975;DHT22;62136;-35.664;-63.766;2023-06-04T07:30:58;19.00;56.60
59975;DHT22;62136;-35.664;-63.766;2023-06-04T07:33:26;19.00;56.60
59975;DHT22;62136;-35.664;-63.766;2023-06-04T07:35:53;19.00;56.50
59975;DHT22;62136;-35.664;-63.766;2023-06-04T07:38:20;19.00;56.60
59975;DHT22;62136;-35.664;-63.766;2023-06-04T07:40:47;19.00;56.70
59975;DHT22;62136;-35.664;-63.766;2023-06-04T07:43:14;19.00;56.70
59975;DHT22;62136;-35.664;-63.766;2023-06-04T07:45:41;19.00;56.70
59975;DHT22;62136;-35.664;-63.766;2023-06-04T07:48:11;18.90;56.70
59975;DHT22;62136;-35.664;-63.766;2023-06-04T07:50:38;18.90;56.60
59975;DHT22;62136;-35.664;-63.766;2023-06-04T07:53:06;18.90;56.70
59975;DHT22;62136;-35.664;-63.766;2023-06-04T07:55:33;18.90;56.70
59975;DHT22;62136;-35.664;-63.766;2023-06-04T07:58:01;18.90;56.80
59975;DHT22;62136;-35.664;-63.766;2023-06-04T08:00:28;18.90;56.70
59975;DHT22;62136;-35.664;-63.766;2023-06-04T08:02:55;18.90;56.70
59975;DHT22;62136;-35.664;-63.766;2023-06-04T08:05:23;18.90;56.80
59975;DHT22;62136;-35.664;-63.766;2023-06-04T08:07:50;18.90;56.70
59975;DHT22;62136;-35.664;-63.766;2023-06-04T08:10:17;18.80;56.70
59975;DHT22;62136;-35.664;-63.766;2023-06-04T08:12:44;18.90;56.70
59975;DHT22;62136;-35.664;-63.766;2023-06-04T08:15:11;18.80;56.70
59975;DHT22;62136;-35.664;-63.766;2023-06-04T08:17:38;18.90;56.80
59975;DHT22;62136;-35.664;-63.766;2023-06-04T08:20:06;18.80;56.70
59975;DHT22;62136;-35.664;-63.766;2023-06-04T08:22:33;18.80;56.70
59975;DHT22;62136;-35.664;-63.766;2023-06-04T08:25:00;18.80;56.70
59975;DHT22;62136;-35.664;-63.766;2023-06-04T08:27:27;18.80;56.60
59975;DHT22;62136;-35.664;-63.766;2023-06-04T08:29:56;18.80;56.60
59975;DHT22;62136;-35.664;-63.766;2023-06-04T08:32:24;18.80;56.60
59975;DHT22;62136;-35.664;-63.766;2023-06-04T08:34:51;18.80;56.70
59975;DHT22;62136;-35.664;-63.766;2023-06-04T08:37:18;18.80;57.10
59975;DHT22;62136;-35.664;-63.766;2023-06-04T08:39:45;18.80;56.70
59975;DHT22;62136;-35.664;-63.766;2023-06-04T08:42:32;18.70;56.60
59975;DHT22;62136;-35.664;-63.766;2023-06-04T08:45:03;18.80;56.80
59975;DHT22;62136;-35.664;-63.766;2023-06-04T08:47:32;18.80;56.70
59975;DHT22;62136;-35.664;-63.766;2023-06-04T08:50:00;18.70;56.60
59975;DHT22;62136;-35.664;-63.766;2023-06-04T08:52:28;18.70;56.60
59975;DHT22;62136;-35.664;-63.766;2023-06-04T08:54:56;18.70;56.60
59975;DHT22;62136;-35.664;-63.766;2023-06-04T08:57:23;18.70;56.70
59975;DHT22;62136;-35.664;-63.766;2023-06-04T08:59:51;18.70;56.60
59975;DHT22;62136;-35.664;-63.766;2023-06-04T09:02:18;18.60;56.60
59975;DHT22;62136;-35.664;-63.766;2023-06-04T09:04:46;18.70;56.70
59975;DHT22;62136;-35.664;-63.766;2023-06-04T09:07:14;18.60;56.50
59975;DHT22;62136;-35.664;-63.766;2023-06-04T09:09:45;18.60;56.60
59975;DHT22;62136;-35.664;-63.766;2023-06-04T09:12:21;18.60;56.50
59975;DHT22;62136;-35.664;-63.766;2023-06-04T09:14:50;18.60;56.30
59975;DHT22;62136;-35.664;-63.766;2023-06-04T09:17:23;18.60;56.50
59975;DHT22;62136;-35.664;-63.766;2023-06-04T09:19:51;18.60;56.50
59975;DHT22;62136;-35.664;-63.766;2023-06-04T09:22:18;18.60;56.40
59975;DHT22;62136;-35.664;-63.766;2023-06-04T09:24:47;18.60;56.40
59975;DHT22;62136;-35.664;-63.766;2023-06-04T09:27:20;18.50;56.40
59975;DHT22;62136;-35.664;-63.766;2023-06-04T09:29:58;18.50;56.30
59975;DHT22;62136;-35.664;-63.766;2023-06-04T09:32:30;18.50;56.40
59975;DHT22;62136;-35.664;-63.766;2023-06-04T09:37:36;18.50;56.30
59975;DHT22;62136;-35.664;-63.766;2023-06-04T09:40:03;18.50;56.30
59975;DHT22;62136;-35.664;-63.766;2023-06-04T09:42:42;18.50;56.30
59975;DHT22;62136;-35.664;-63.766;2023-06-04T09:45:10;18.50;56.30
59975;DHT22;62136;-35.664;-63.766;2023-06-04T09:47:43;18.40;56.10
59975;DHT22;62136;-35.664;-63.766;2023-06-04T09:50:13;18.40;56.20
59975;DHT22;62136;-35.664;-63.766;2023-06-04T09:52:41;18.40;56.20
59975;DHT22;62136;-35.664;-63.766;2023-06-04T09:55:25;18.40;56.10
59975;DHT22;62136;-35.664;-63.766;2023-06-04T09:57:53;18.40;56.20
59975;DHT22;62136;-35.664;-63.766;2023-06-04T10:00:22;18.40;56.10
59975;DHT22;62136;-35.664;-63.766;2023-06-04T10:02:56;18.30;56.00
59975;DHT22;62136;-35.664;-63.766;2023-06-04T10:05:25;18.30;56.10
59975;DHT22;62136;-35.664;-63.766;2023-06-04T10:07:52;18.40;56.00
59975;DHT22;62136;-35.664;-63.766;2023-06-04T10:10:25;18.30;55.90
59975;DHT22;62136;-35.664;-63.766;2023-06-04T10:13:00;18.30;55.90
59975;DHT22;62136;-35.664;-63.766;2023-06-04T10:15:31;18.30;55.90
59975;DHT22;62136;-35.664;-63.766;2023-06-04T10:18:02;18.30;55.90
59975;DHT22;62136;-35.664;-63.766;2023-06-04T10:20:31;18.30;55.90
59975;DHT22;62136;-35.664;-63.766;2023-06-04T10:22:58;18.20;55.80
59975;DHT22;62136;-35.664;-63.766;2023-06-04T10:25:27;18.30;55.70
59975;DHT22;62136;-35.664;-63.766;2023-06-04T10:27:54;18.20;55.60
59975;DHT22;62136;-35.664;-63.766;2023-06-04T10:30:22;18.20;55.70
59975;DHT22;62136;-35.664;-63.766;2023-06-04T10:32:49;18.20;55.70
59975;DHT22;62136;-35.664;-63.766;2023-06-04T10:35:17;18.20;55.70
59975;DHT22;62136;-35.664;-63.766;2023-06-04T10:37:44;18.20;55.60
59975;DHT22;62136;-35.664;-63.766;2023-06-04T10:40:14;18.20;55.60
59975;DHT22;62136;-35.664;-63.766;2023-06-04T10:42:43;18.20;55.60
59975;DHT22;62136;-35.664;-63.766;2023-06-04T10:45:10;18.20;55.60
59975;DHT22;62136;-35.664;-63.766;2023-06-04T10:47:38;18.20;55.60
59975;DHT22;62136;-35.664;-63.766;2023-06-04T10:50:11;18.10;55.40
59975;DHT22;62136;-35.664;-63.766;2023-06-04T10:52:51;18.10;55.50
59975;DHT22;62136;-35.664;-63.766;2023-06-04T10:55:19;18.10;55.40
59975;DHT22;62136;-35.664;-63.766;2023-06-04T10:57:57;18.10;55.40
59975;DHT22;62136;-35.664;-63.766;2023-06-04T11:00:44;18.10;55.40
59975;DHT22;62136;-35.664;-63.766;2023-06-04T11:03:16;18.10;55.80
59975;DHT22;62136;-35.664;-63.766;2023-06-04T11:05:46;18.10;55.30
59975;DHT22;62136;-35.664;-63.766;2023-06-04T11:08:14;18.10;55.20
59975;DHT22;62136;-35.664;-63.766;2023-06-04T11:10:45;18.00;55.20
59975;DHT22;62136;-35.664;-63.766;2023-06-04T11:13:12;18.00;55.00
59975;DHT22;62136;-35.664;-63.766;2023-06-04T11:15:43;18.00;55.10
59975;DHT22;62136;-35.664;-63.766;2023-06-04T11:18:15;18.00;55.10
59975;DHT22;62136;-35.664;-63.766;2023-06-04T11:20:47;18.00;55.00
59975;DHT22;62136;-35.664;-63.766;2023-06-04T11:23:16;18.00;55.00
59975;DHT22;62136;-35.664;-63.766;2023-06-04T11:25:44;17.90;55.00
59975;DHT22;62136;-35.664;-63.766;2023-06-04T11:28:18;17.90;55.30
59975;DHT22;62136;-35.664;-63.766;2023-06-04T11:31:05;18.00;54.80
59975;DHT22;62136;-35.664;-63.766;2023-06-04T11:33:47;17.90;54.80
59975;DHT22;62136;-35.664;-63.766;2023-06-04T11:36:27;17.90;55.20
59975;DHT22;62136;-35.664;-63.766;2023-06-04T11:38:58;17.90;54.80
59975;DHT22;62136;-35.664;-63.766;2023-06-04T11:41:30;17.90;54.80
59975;DHT22;62136;-35.664;-63.766;2023-06-04T11:44:01;17.90;54.70
59975;DHT22;62136;-35.664;-63.766;2023-06-04T11:46:30;17.90;54.70
59975;DHT22;62136;-35.664;-63.766;2023-06-04T11:48:57;17.80;54.60
59975;DHT22;62136;-35.664;-63.766;2023-06-04T11:51:25;17.80;54.60
59975;DHT22;62136;-35.664;-63.766;2023-06-04T11:53:53;17.80;54.60
59975;DHT22;62136;-35.664;-63.766;2023-06-04T11:56:23;17.80;54.50
59975;DHT22;62136;-35.664;-63.766;2023-06-04T11:58:53;17.80;54.20
59975;DHT22;62136;-35.664;-63.766;2023-06-04T12:01:21;17.80;54.50
59975;DHT22;62136;-35.664;-63.766;2023-06-04T12:03:49;17.80;54.40
59975;DHT22;62136;-35.664;-63.766;2023-06-04T12:06:18;17.80;54.40
59975;DHT22;62136;-35.664;-63.766;2023-06-04T12:08:54;17.80;54.40
59975;DHT22;62136;-35.664;-63.766;2023-06-04T12:11:33;17.80;54.40
59975;DHT22;62136;-35.664;-63.766;2023-06-04T12:14:04;17.70;54.30
59975;DHT22;62136;-35.664;-63.766;2023-06-04T12:16:35;17.70;54.30
59975;DHT22;62136;-35.664;-63.766;2023-06-04T12:19:10;17.80;54.30
59975;DHT22;62136;-35.664;-63.766;2023-06-04T12:21:39;17.80;54.20
59975;DHT22;62136;-35.664;-63.766;2023-06-04T12:26:34;17.70;54.10
59975;DHT22;62136;-35.664;-63.766;2023-06-04T12:29:17;17.80;54.10
59975;DHT22;62136;-35.664;-63.766;2023-06-04T12:31:46;17.70;54.10
59975;DHT22;62136;-35.664;-63.766;2023-06-04T12:34:16;17.70;54.10
59975;DHT22;62136;-35.664;-63.766;2023-06-04T12:36:44;17.70;54.10
59975;DHT22;62136;-35.664;-63.766;2023-06-04T12:39:11;17.70;54.10
59975;DHT22;62136;-35.664;-63.766;2023-06-04T12:41:38;17.70;54.00
59975;DHT22;62136;-35.664;-63.766;2023-06-04T12:44:11;17.70;54.10
59975;DHT22;62136;-35.664;-63.766;2023-06-04T12:46:38;17.70;54.10
59975;DHT22;62136;-35.664;-63.766;2023-06-04T12:49:05;17.70;54.10
59975;DHT22;62136;-35.664;-63.766;2023-06-04T12:51:32;17.70;54.10
59975;DHT22;62136;-35.664;-63.766;2023-06-04T12:53:59;17.80;54.00
59975;DHT22;62136;-35.664;-63.766;2023-06-04T12:56:26;17.70;54.20
59975;DHT22;62136;-35.664;-63.766;2023-06-04T12:58:53;17.70;53.90
59975;DHT22;62136;-35.664;-63.766;2023-06-04T13:01:20;17.70;53.90
59975;DHT22;62136;-35.664;-63.766;2023-06-04T13:03:50;17.70;53.80
59975;DHT22;62136;-35.664;-63.766;2023-06-04T13:06:18;17.70;53.70
59975;DHT22;62136;-35.664;-63.766;2023-06-04T13:08:45;17.80;53.70
59975;DHT22;62136;-35.664;-63.766;2023-06-04T13:11:12;17.70;53.60
59975;DHT22;62136;-35.664;-63.766;2023-06-04T13:13:39;17.80;53.60
59975;DHT22;62136;-35.664;-63.766;2023-06-04T13:16:07;17.80;53.50
59975;DHT22;62136;-35.664;-63.766;2023-06-04T13:18:35;17.80;53.50
59975;DHT22;62136;-35.664;-63.766;2023-06-04T13:21:03;17.80;53.40
59975;DHT22;62136;-35.664;-63.766;2023-06-04T13:23:30;17.80;53.40
59975;DHT22;62136;-35.664;-63.766;2023-06-04T13:25:57;17.80;53.30
59975;DHT22;62136;-35.664;-63.766;2023-06-04T13:28:24;17.80;53.30
59975;DHT22;62136;-35.664;-63.766;2023-06-04T13:30:51;17.80;53.20
59975;DHT22;62136;-35.664;-63.766;2023-06-04T13:33:18;17.80;53.20
59975;DHT22;62136;-35.664;-63.766;2023-06-04T13:35:46;17.80;53.20
59975;DHT22;62136;-35.664;-63.766;2023-06-04T13:38:13;17.80;53.20
59975;DHT22;62136;-35.664;-63.766;2023-06-04T13:40:41;17.80;53.10
59975;DHT22;62136;-35.664;-63.766;2023-06-04T13:43:09;17.80;53.20
59975;DHT22;62136;-35.664;-63.766;2023-06-04T13:45:36;17.80;53.20
59975;DHT22;62136;-35.664;-63.766;2023-06-04T13:48:03;17.80;53.60
59975;DHT22;62136;-35.664;-63.766;2023-06-04T13:50:33;17.80;53.10
59975;DHT22;62136;-35.664;-63.766;2023-06-04T13:53:01;17.90;53.10
59975;DHT22;62136;-35.664;-63.766;2023-06-04T13:55:28;17.90;53.20
59975;DHT22;62136;-35.664;-63.766;2023-06-04T13:57:56;17.90;53.00
59975;DHT22;62136;-35.664;-63.766;2023-06-04T14:00:23;17.90;52.80
59975;DHT22;62136;-35.664;-63.766;2023-06-04T14:02:50;18.00;52.70
59975;DHT22;62136;-35.664;-63.766;2023-06-04T14:05:18;18.00;52.20
59975;DHT22;62136;-35.664;-63.766;2023-06-04T14:07:45;17.90;51.20
59975;DHT22;62136;-35.664;-63.766;2023-06-04T14:10:13;18.00;51.20
59975;DHT22;62136;-35.664;-63.766;2023-06-04T14:12:40;18.00;50.50
59975;DHT22;62136;-35.664;-63.766;2023-06-04T14:15:08;17.90;49.70
59975;DHT22;62136;-35.664;-63.766;2023-06-04T14:17:36;18.00;49.70
59975;DHT22;62136;-35.664;-63.766;2023-06-04T14:20:04;18.00;49.20
59975;DHT22;62136;-35.664;-63.766;2023-06-04T14:22:37;18.00;49.00
59975;DHT22;62136;-35.664;-63.766;2023-06-04T14:25:05;18.00;48.40
59975;DHT22;62136;-35.664;-63.766;2023-06-04T14:27:34;18.00;48.70
59975;DHT22;62136;-35.664;-63.766;2023-06-04T14:30:02;18.00;48.60
59975;DHT22;62136;-35.664;-63.766;2023-06-04T14:32:29;18.00;49.00
59975;DHT22;62136;-35.664;-63.766;2023-06-04T14:34:57;18.10;48.80
59975;DHT22;62136;-35.664;-63.766;2023-06-04T14:37:24;18.10;48.80
59975;DHT22;62136;-35.664;-63.766;2023-06-04T14:39:51;18.10;48.40
59975;DHT22;62136;-35.664;-63.766;2023-06-04T14:42:18;18.10;48.60
59975;DHT22;62136;-35.664;-63.766;2023-06-04T14:44:46;18.10;48.60
59975;DHT22;62136;-35.664;-63.766;2023-06-04T14:47:13;18.10;48.70
59975;DHT22;62136;-35.664;-63.766;2023-06-04T14:49:40;18.20;48.80
59975;DHT22;62136;-35.664;-63.766;2023-06-04T14:52:07;18.20;48.60
59975;DHT22;62136;-35.664;-63.766;2023-06-04T14:54:35;18.20;48.70
59975;DHT22;62136;-35.664;-63.766;2023-06-04T14:57:02;18.20;48.50
59975;DHT22;62136;-35.664;-63.766;2023-06-04T14:59:29;18.20;48.40
59975;DHT22;62136;-35.664;-63.766;2023-06-04T15:01:56;18.30;48.60
59975;DHT22;62136;-35.664;-63.766;2023-06-04T15:04:24;18.20;48.50
59975;DHT22;62136;-35.664;-63.766;2023-06-04T15:06:51;18.20;48.50
59975;DHT22;62136;-35.664;-63.766;2023-06-04T15:09:18;18.20;48.60
59975;DHT22;62136;-35.664;-63.766;2023-06-04T15:11:45;18.30;48.70
59975;DHT22;62136;-35.664;-63.766;2023-06-04T15:14:12;18.20;48.40
59975;DHT22;62136;-35.664;-63.766;2023-06-04T15:16:39;18.30;48.40
59975;DHT22;62136;-35.664;-63.766;2023-06-04T15:19:06;18.30;48.50
59975;DHT22;62136;-35.664;-63.766;2023-06-04T15:21:36;18.30;48.50